createdAt,value
2022-08-30T00:01:14.376Z,18.50
2022-08-30T00:04:56.582Z,18.40
2022-08-30T00:08:40.932Z,18.40
2022-08-30T00:12:22.717Z,18.40
2022-08-30T00:16:06.788Z,18.30
2022-08-30T00:19:48.696Z,18.20
2022-08-30T00:23:30.838Z,18.20
2022-08-30T00:27:12.620Z,18.10
2022-08-30T00:30:54.875Z,17.90
2022-08-30T00:34:36.682Z,17.90
2022-08-30T00:38:18.466Z,17.80
2022-08-30T00:42:00.509Z,17.70
2022-08-30T00:45:42.439Z,17.70
2022-08-30T00:49:25.457Z,17.70
2022-08-30T00:53:10.528Z,17.60
2022-08-30T00:56:52.891Z,17.60
2022-08-30T01:00:35.545Z,17.50
2022-08-30T01:04:21.381Z,17.50
2022-08-30T01:08:03.420Z,17.50
2022-08-30T01:11:46.672Z,17.40
2022-08-30T01:15:28.772Z,17.40
2022-08-30T01:19:36.621Z,17.30
2022-08-30T01:23:21.645Z,17.30
2022-08-30T01:27:04.790Z,17.20
2022-08-30T01:30:47.173Z,17.20
2022-08-30T01:34:29.012Z,17.10
2022-08-30T01:38:12.997Z,17.10
2022-08-30T01:41:54.802Z,17.10
2022-08-30T01:45:36.784Z,17.10
2022-08-30T01:49:27.466Z,17.10
2022-08-30T01:53:13.092Z,17.10
2022-08-30T01:56:55.236Z,17.10
2022-08-30T02:00:38.125Z,17.20
2022-08-30T02:04:20.124Z,17.20
2022-08-30T02:08:02.946Z,17.20
2022-08-30T02:11:45.648Z,17.20
2022-08-30T02:15:27.474Z,17.20
2022-08-30T02:19:09.379Z,17.10
2022-08-30T02:22:56.683Z,17.10
2022-08-30T02:26:40.346Z,17.00
2022-08-30T02:30:22.183Z,17.10
2022-08-30T02:34:04.475Z,17.00
2022-08-30T02:37:46.286Z,16.90
2022-08-30T02:41:28.093Z,16.80
2022-08-30T02:45:10.441Z,16.80
2022-08-30T02:48:52.245Z,16.80
2022-08-30T02:52:34.322Z,16.70
2022-08-30T02:56:16.541Z,16.60
2022-08-30T02:59:58.629Z,16.60
2022-08-30T03:03:42.700Z,16.60
2022-08-30T03:07:24.521Z,16.50
2022-08-30T03:11:07.496Z,16.40
2022-08-30T03:14:49.305Z,16.30
2022-08-30T03:18:31.147Z,16.20
2022-08-30T03:22:13.157Z,16.30
2022-08-30T03:25:55.003Z,16.20
2022-08-30T03:29:36.875Z,16.20
2022-08-30T03:33:18.868Z,16.10
2022-08-30T03:37:03.782Z,16.00
2022-08-30T03:40:45.644Z,16.00
2022-08-30T03:44:28.525Z,15.90
2022-08-30T03:48:10.541Z,15.90
2022-08-30T03:51:52.369Z,15.80
2022-08-30T03:55:34.306Z,15.80
2022-08-30T03:59:16.189Z,15.80
2022-08-30T04:02:58.040Z,15.80
2022-08-30T04:06:40.206Z,15.70
2022-08-30T04:10:22.549Z,15.60
2022-08-30T04:14:04.437Z,15.60
2022-08-30T04:17:47.223Z,15.50
2022-08-30T04:21:29.144Z,15.40
2022-08-30T04:25:15.659Z,15.40
2022-08-30T04:28:59.324Z,15.30
2022-08-30T04:32:41.182Z,15.30
2022-08-30T04:36:23.074Z,15.20
2022-08-30T04:40:06.312Z,15.20
2022-08-30T04:43:51.553Z,15.10
2022-08-30T04:47:33.304Z,15.10
2022-08-30T04:51:17.349Z,15.00
2022-08-30T04:54:59.612Z,15.00
2022-08-30T04:58:41.437Z,15.00
2022-08-30T05:02:23.848Z,14.90
2022-08-30T05:06:05.878Z,14.90
2022-08-30T05:09:47.637Z,15.00
2022-08-30T05:13:35.473Z,14.90
2022-08-30T05:17:18.771Z,14.90
2022-08-30T05:21:22.176Z,14.80
2022-08-30T05:25:05.242Z,14.80
2022-08-30T05:28:47.245Z,14.80
2022-08-30T05:32:31.396Z,14.80
2022-08-30T05:36:14.771Z,14.90
2022-08-30T05:39:56.716Z,14.90
2022-08-30T05:43:39.756Z,14.90
2022-08-30T05:47:21.782Z,14.90
2022-08-30T05:51:11.576Z,14.90
2022-08-30T05:54:59.077Z,14.90
2022-08-30T05:58:40.998Z,14.90
2022-08-30T06:02:22.845Z,14.90
2022-08-30T06:06:04.905Z,14.90
2022-08-30T06:09:46.727Z,14.90
2022-08-30T06:13:28.504Z,14.90
2022-08-30T06:17:10.807Z,14.90
2022-08-30T06:20:52.564Z,15.00
2022-08-30T06:24:56.446Z,15.00
2022-08-30T06:28:38.185Z,15.00
2022-08-30T06:32:20.049Z,15.00
2022-08-30T06:36:10.610Z,15.10
2022-08-30T06:39:52.491Z,15.10
2022-08-30T06:43:34.481Z,15.20
2022-08-30T06:47:16.246Z,15.10
2022-08-30T06:50:59.213Z,15.10
2022-08-30T06:54:41.392Z,15.10
2022-08-30T06:58:23.494Z,15.20
2022-08-30T07:02:06.351Z,15.30
2022-08-30T07:05:49.313Z,15.30
2022-08-30T07:13:19.812Z,15.50
2022-08-30T07:17:01.761Z,15.50
2022-08-30T07:20:43.596Z,15.50
2022-08-30T07:24:25.434Z,15.50
2022-08-30T07:28:08.074Z,15.60
2022-08-30T07:31:50.068Z,15.60
2022-08-30T07:35:32.192Z,15.70
2022-08-30T07:39:14.011Z,15.80
2022-08-30T07:42:55.787Z,16.00
2022-08-30T07:46:38.978Z,16.10
2022-08-30T07:50:20.917Z,16.10
2022-08-30T07:54:03.126Z,16.30
2022-08-30T07:57:44.902Z,16.40
2022-08-30T08:01:26.737Z,16.50
2022-08-30T08:05:13.917Z,16.60
2022-08-30T08:09:02.241Z,16.70
2022-08-30T08:12:44.005Z,16.90
2022-08-30T08:16:29.464Z,17.10
2022-08-30T08:20:11.321Z,17.30
2022-08-30T08:23:53.453Z,17.40
2022-08-30T08:27:35.216Z,17.70
2022-08-30T08:31:25.407Z,17.90
2022-08-30T08:35:11.584Z,18.10
2022-08-30T08:38:53.838Z,18.20
2022-08-30T08:43:05.918Z,18.40
2022-08-30T08:46:59.805Z,18.70
2022-08-30T08:51:02.798Z,18.90
2022-08-30T08:54:51.414Z,19.10
2022-08-30T08:58:44.898Z,19.30
2022-08-30T09:02:29.972Z,19.40
2022-08-30T09:06:39.612Z,19.40
2022-08-30T09:10:49.485Z,19.40
2022-08-30T09:14:46.135Z,19.60
2022-08-30T09:18:50.105Z,19.80
2022-08-30T09:22:40.645Z,20.00
2022-08-30T09:26:35.771Z,20.10
2022-08-30T09:30:28.238Z,20.10
2022-08-30T09:34:17.638Z,20.20
2022-08-30T09:38:28.316Z,20.10
2022-08-30T09:42:25.333Z,20.30
2022-08-30T09:46:10.818Z,20.40
2022-08-30T09:54:31.101Z,20.70
2022-08-30T09:58:21.266Z,21.00
2022-08-30T10:02:15.034Z,21.20
2022-08-30T10:06:14.410Z,21.40
2022-08-30T10:10:20.642Z,21.40
2022-08-30T10:14:15.372Z,21.50
2022-08-30T10:18:20.480Z,21.60
2022-08-30T10:22:08.082Z,21.60
2022-08-30T10:26:13.104Z,21.80
2022-08-30T10:30:07.938Z,21.90
2022-08-30T10:33:56.584Z,21.90
2022-08-30T10:38:00.077Z,22.00
2022-08-30T10:41:53.284Z,22.00
2022-08-30T10:45:40.502Z,22.10
2022-08-30T10:49:25.409Z,22.20
2022-08-30T10:53:15.509Z,22.30
2022-08-30T10:56:57.909Z,22.40
2022-08-30T11:00:45.333Z,22.40
2022-08-30T11:04:44.520Z,22.40
2022-08-30T11:08:33.241Z,22.60
2022-08-30T11:12:33.213Z,22.80
2022-08-30T11:16:19.047Z,22.70
2022-08-30T11:20:05.510Z,22.70
2022-08-30T11:24:00.962Z,22.60
2022-08-30T11:27:51.385Z,22.90
2022-08-30T11:31:37.557Z,22.90
2022-08-30T11:35:49.847Z,22.90
2022-08-30T11:39:46.876Z,22.90
2022-08-30T11:43:34.555Z,22.80
2022-08-30T11:47:42.417Z,22.80
2022-08-30T11:51:50.895Z,22.80
2022-08-30T11:55:56.649Z,22.90
2022-08-30T11:59:53.909Z,23.00
2022-08-30T12:03:36.876Z,23.10
2022-08-30T12:07:58.033Z,23.20
2022-08-30T12:11:52.019Z,23.10
2022-08-30T12:16:00.598Z,23.00
2022-08-30T12:19:47.769Z,22.80
2022-08-30T12:23:44.572Z,22.80
2022-08-30T12:27:33.223Z,22.80
2022-08-30T12:31:22.327Z,22.80
2022-08-30T12:35:07.141Z,22.70
2022-08-30T12:38:51.450Z,22.70
2022-08-30T12:42:37.051Z,22.60
2022-08-30T12:46:22.164Z,22.70
2022-08-30T12:50:06.362Z,22.80
2022-08-30T12:53:53.921Z,22.80
2022-08-30T12:57:38.310Z,22.70
2022-08-30T13:01:35.958Z,22.60
2022-08-30T13:05:44.565Z,22.70
2022-08-30T13:09:33.931Z,22.80
2022-08-30T13:13:31.628Z,22.90
2022-08-30T13:17:19.429Z,23.20
2022-08-30T13:21:25.882Z,23.40
2022-08-30T13:25:10.109Z,23.50
2022-08-30T13:29:10.428Z,23.60
2022-08-30T13:32:52.485Z,23.80
2022-08-30T13:36:44.783Z,24.00
2022-08-30T13:40:27.183Z,24.40
2022-08-30T13:44:12.183Z,24.40
2022-08-30T13:47:55.243Z,24.50
2022-08-30T13:51:37.033Z,24.40
2022-08-30T13:55:18.808Z,24.40
2022-08-30T13:59:03.169Z,24.30
2022-08-30T14:02:54.628Z,24.20
2022-08-30T14:07:11.835Z,24.10
2022-08-30T14:10:46.946Z,24.10
2022-08-30T14:14:42.825Z,24.20
2022-08-30T14:18:25.725Z,24.30
2022-08-30T14:22:07.567Z,24.30
2022-08-30T14:25:50.080Z,24.30
2022-08-30T14:29:32.549Z,24.30
2022-08-30T14:33:15.534Z,24.20
2022-08-30T14:36:58.190Z,24.20
2022-08-30T14:40:40.690Z,24.30
2022-08-30T14:44:24.590Z,24.30
2022-08-30T14:48:11.932Z,24.40
2022-08-30T14:51:56.980Z,24.60
2022-08-30T14:55:40.123Z,24.90
2022-08-30T14:59:23.787Z,24.90
2022-08-30T15:03:05.865Z,24.90
2022-08-30T15:06:48.688Z,24.70
2022-08-30T15:10:30.449Z,24.70
2022-08-30T15:14:16.008Z,25.00
2022-08-30T15:17:58.193Z,25.60
2022-08-30T15:21:46.374Z,25.80
2022-08-30T15:25:30.169Z,25.60
2022-08-30T15:29:17.305Z,25.40
2022-08-30T15:32:59.142Z,25.20
2022-08-30T15:36:44.303Z,25.20
2022-08-30T15:40:27.313Z,25.80
2022-08-30T15:44:09.549Z,26.90
2022-08-30T15:47:53.423Z,27.10
2022-08-30T15:51:41.949Z,27.00
2022-08-30T15:55:27.786Z,26.70
2022-08-30T15:59:10.946Z,26.50
2022-08-30T16:02:53.186Z,26.30
2022-08-30T16:06:37.366Z,26.10
2022-08-30T16:10:19.554Z,26.10
2022-08-30T16:14:01.882Z,26.00
2022-08-30T16:17:43.750Z,25.90
2022-08-30T16:21:28.306Z,25.80
2022-08-30T16:25:11.068Z,25.80
2022-08-30T16:28:53.904Z,26.20
2022-08-30T16:32:35.685Z,26.70
2022-08-30T16:36:17.506Z,27.10
2022-08-30T16:39:59.424Z,28.00
2022-08-30T16:43:41.386Z,28.20
2022-08-30T16:47:23.265Z,28.10
2022-08-30T16:51:10.392Z,28.10
2022-08-30T16:54:52.507Z,28.70
2022-08-30T16:58:34.738Z,28.70
2022-08-30T17:02:16.521Z,28.40
2022-08-30T17:05:58.462Z,28.00
2022-08-30T17:09:40.944Z,27.70
2022-08-30T17:13:22.933Z,27.40
2022-08-30T17:17:04.793Z,27.80
2022-08-30T17:20:47.550Z,28.90
2022-08-30T17:24:29.420Z,29.80
2022-08-30T17:28:11.275Z,30.60
2022-08-30T17:31:53.491Z,30.70
2022-08-30T17:35:35.336Z,30.10
2022-08-30T17:39:17.468Z,29.40
2022-08-30T17:42:59.355Z,28.70
2022-08-30T17:46:41.493Z,28.10
2022-08-30T17:50:23.414Z,27.70
2022-08-30T17:54:05.285Z,27.40
2022-08-30T17:57:47.057Z,26.90
2022-08-30T18:01:32.886Z,26.60
2022-08-30T18:05:14.998Z,26.30
2022-08-30T18:08:56.867Z,25.90
2022-08-30T18:12:38.677Z,25.60
2022-08-30T18:16:21.691Z,25.50
2022-08-30T18:20:08.298Z,25.60
2022-08-30T18:23:50.747Z,25.80
2022-08-30T18:27:32.968Z,25.70
2022-08-30T18:31:20.916Z,25.40
2022-08-30T18:35:02.737Z,25.00
2022-08-30T18:38:47.610Z,24.70
2022-08-30T18:42:29.649Z,24.40
2022-08-30T18:46:14.013Z,24.20
2022-08-30T18:49:56.446Z,24.00
2022-08-30T18:53:38.355Z,23.80
2022-08-30T18:57:21.930Z,23.60
2022-08-30T19:01:04.360Z,23.40
2022-08-30T19:04:47.109Z,23.30
2022-08-30T19:08:28.955Z,23.10
2022-08-30T19:12:11.442Z,22.90
2022-08-30T19:15:54.823Z,22.80
2022-08-30T19:19:46.383Z,22.70
2022-08-30T19:23:34.387Z,22.60
2022-08-30T19:27:17.837Z,22.40
2022-08-30T19:30:59.643Z,22.30
2022-08-30T19:34:42.172Z,22.20
2022-08-30T19:38:25.151Z,22.10
2022-08-30T19:42:08.150Z,22.00
2022-08-30T19:45:55.614Z,21.90
2022-08-30T19:49:37.449Z,21.80
2022-08-30T19:53:20.011Z,21.80
2022-08-30T19:57:02.644Z,21.60
2022-08-30T20:01:00.817Z,21.50
2022-08-30T20:04:49.927Z,21.50
2022-08-30T20:08:31.926Z,21.40
2022-08-30T20:12:14.401Z,21.30
2022-08-30T20:15:58.659Z,21.20
2022-08-30T20:19:41.447Z,21.20
2022-08-30T20:23:25.600Z,21.20
2022-08-30T20:27:07.756Z,21.10
2022-08-30T20:30:51.217Z,21.00
2022-08-30T20:34:33.651Z,20.90
2022-08-30T20:38:20.632Z,20.90
2022-08-30T20:42:03.530Z,20.80
2022-08-30T20:45:46.304Z,20.80
2022-08-30T20:49:28.168Z,20.70
2022-08-30T20:53:10.515Z,20.70
2022-08-30T20:56:52.285Z,20.60
2022-08-30T21:00:34.186Z,20.60
2022-08-30T21:04:16.166Z,20.50
2022-08-30T21:07:57.944Z,20.40
2022-08-30T21:11:39.808Z,20.40
2022-08-30T21:15:37.295Z,20.30
2022-08-30T21:19:19.959Z,20.20
2022-08-30T21:23:02.148Z,20.10
2022-08-30T21:26:44.262Z,20.00
2022-08-30T21:30:26.597Z,19.90
2022-08-30T21:34:08.929Z,19.90
2022-08-30T21:37:59.102Z,19.80
2022-08-30T21:41:41.574Z,19.80
2022-08-30T21:45:23.418Z,19.70
2022-08-30T21:49:07.941Z,19.60
2022-08-30T21:52:49.788Z,19.60
2022-08-30T21:56:32.154Z,19.60
2022-08-30T22:00:20.930Z,19.60
2022-08-30T22:04:04.405Z,19.60
2022-08-30T22:07:46.318Z,19.60
2022-08-30T22:11:31.179Z,19.60
2022-08-30T22:15:13.074Z,19.50
2022-08-30T22:18:54.908Z,19.50
2022-08-30T22:22:37.032Z,19.40
2022-08-30T22:26:20.649Z,19.40
2022-08-30T22:30:02.487Z,19.30
2022-08-30T22:33:46.993Z,19.20
2022-08-30T22:37:29.101Z,19.10
2022-08-30T22:41:13.741Z,19.10
2022-08-30T22:44:55.598Z,19.10
2022-08-30T22:48:43.038Z,19.00
2022-08-30T22:52:25.551Z,18.90
2022-08-30T22:56:10.078Z,18.80
2022-08-30T22:59:51.877Z,18.80
2022-08-30T23:03:35.241Z,18.80
2022-08-30T23:07:17.027Z,18.80
2022-08-30T23:10:58.906Z,18.70
2022-08-30T23:14:40.663Z,18.70
2022-08-30T23:18:22.458Z,18.50
2022-08-30T23:22:04.370Z,18.60
2022-08-30T23:26:04.926Z,18.40
2022-08-30T23:30:05.298Z,18.40
2022-08-30T23:34:05.790Z,18.30
2022-08-30T23:38:10.774Z,18.30
2022-08-30T23:42:11.352Z,18.20
2022-08-30T23:46:11.895Z,18.10
2022-08-30T23:50:19.742Z,18.10
2022-08-30T23:54:22.877Z,18.10
2022-08-30T23:58:23.236Z,18.10
